Aérodrome :
LOGIN :

S'inscrire | Disclaimer

   EN    FR    IT 

 










Légende :    VFR   VFR Marginal   IFR   IFR Intensif   IFR Très Intensif
Visi : 
Plafond : 
>= 8 km
>= 3000ft
5 à 8 km
1000 à 3000 ft
1500m à 5 km
500 à 1000 ft
800 à 1500m
200 à 500 ft
< 800m
< 200 ft
Symboles :   Orages  Brouillard  Fortes neiges  Fortes précipitations  Vent > 20 kt
SIGMETs :   Divers  Orages  Givrage  Turbulence  Onde Orograph.  Cendres Volcan.






- Altitude de l'aérodrome : 523 ft
- Code IATA : AUF


LFLA - Auxerre

DERNIER METAR :
  • 202130Z AUTO 05003KT 360V100 9999 ///CB 19/18 Q1007

METARs EXPIRÉS :
  • 202100Z AUTO VRB03KT 9999 ///CB 19/18 Q1008
  • 202030Z AUTO VRB04KT 9999 -RA VCTS ///CB 19/18 Q1007
  • 202000Z AUTO 11003KT 070V140 8000 +TSRA FEW027/// BKN082/// OVC100/// ///CB 19/18 Q1008
  • 201930Z AUTO 15012G22KT 110V190 1300 R36/1600U +TSRA BR FEW017/// SCT028/// BKN048/// ///CB 19/18 Q1009
  • 201900Z AUTO VRB13G28KT 2400 +TSRA BR FEW027/// SCT037/// BKN052/// ///CB 20/18 Q1006
  • 201830Z AUTO 36005KT 9999 TS ///CB 27/20 Q1005
  • 201800Z AUTO 31004KT 280V340 CAVOK 28/20 Q1006
  • 201730Z AUTO 32004KT CAVOK 29/20 Q1006
  • 201700Z AUTO 29003KT 220V340 CAVOK 31/20 Q1006

TAF N/A



MET'MAP, la Météo Aéronautique d'un coup d'oeil ! - Copyright ORBIFLY Décembre 2007 - Disclaimer

ORBIFLY MET'MAP TEAM :

Programmation & Développement : Alexandra Zaïnal
Sur une idée originale de : Baudouin d'Aumeries
Soutien technique & logistique : Manuel Goepfert
Assistance : Marc-Olivier Méhu




SOURCES & CREDITS :

   NOAA